TAF Text Data
IDs:
Format:
Raw Decoded Include METAR

Data at: 1032 UTC 30 Oct 2020

METAR for:KTOB (Dodge Center Arpt, MN, US)
Text:KTOB 301015Z AUTO 00000KT 10SM BKN060 OVC110 M01/M04 A3019 RMK AO2 PWINO
Temperature: -1.0°C ( 30°F)
Dewpoint: -4.0°C ( 25°F) [RH = 80%]
Pressure (altimeter):30.19 inches Hg (1022.4 mb)
Winds:calm
Visibility:10 or more sm (16+ km)
Ceiling:6000 feet AGL
Clouds: broken clouds at 6000 feet AGL, overcast cloud deck at 11000 feet AGL
QC Flag:automated observation with no human augmentation

TAF for:KTOB (Dodge Center Arpt, MN, US)
Text:No data found